createdAt,value
2023-02-23T00:00:01.334Z,100187.91
2023-02-23T00:03:04.490Z,100203.78
2023-02-23T00:06:08.419Z,100200.34
2023-02-23T00:09:22.780Z,100189.50
2023-02-23T00:12:27.050Z,100199.53
2023-02-23T00:15:29.953Z,100195.34
2023-02-23T00:18:41.215Z,100198.00
2023-02-23T00:21:43.626Z,100207.84
2023-02-23T00:24:47.859Z,100189.88
2023-02-23T00:27:51.898Z,100201.97
2023-02-23T00:30:54.335Z,100195.72
2023-02-23T00:33:59.433Z,100202.88
2023-02-23T00:37:01.711Z,100202.25
2023-02-23T00:40:13.242Z,100198.19
2023-02-23T00:43:19.944Z,100194.06
2023-02-23T00:46:27.070Z,100201.84
2023-02-23T00:49:29.487Z,100197.88
2023-02-23T00:52:32.043Z,100200.78
2023-02-23T00:55:41.623Z,100193.41
2023-02-23T00:58:45.587Z,100217.47
2023-02-23T01:01:48.248Z,100215.44
2023-02-23T01:04:50.951Z,100202.03
2023-02-23T01:07:53.244Z,100197.16
2023-02-23T01:10:55.643Z,100186.13
2023-02-23T01:14:00.200Z,100199.13
2023-02-23T01:17:02.496Z,100199.09
2023-02-23T01:20:15.890Z,100194.22
2023-02-23T01:23:21.192Z,100204.88
2023-02-23T01:26:29.168Z,100204.25
2023-02-23T01:29:31.676Z,100195.09
2023-02-23T01:32:36.626Z,100199.97
2023-02-23T01:35:39.084Z,100201.22
2023-02-23T01:38:41.554Z,100199.94
2023-02-23T01:41:44.386Z,100208.91
2023-02-23T01:44:48.375Z,100205.47
2023-02-23T01:47:57.416Z,100208.09
2023-02-23T01:51:01.166Z,100204.03
2023-02-23T01:54:08.639Z,100199.13
2023-02-23T01:57:12.507Z,100190.47
2023-02-23T02:00:15.363Z,100189.84
2023-02-23T02:03:43.028Z,100195.78
2023-02-23T02:06:48.939Z,100177.47
2023-02-23T02:10:11.566Z,100170.75
2023-02-23T02:13:18.993Z,100194.00
2023-02-23T02:17:02.364Z,100201.31
2023-02-23T02:20:30.822Z,100192.63
2023-02-23T02:23:38.111Z,100194.84
2023-02-23T02:27:21.687Z,100192.03
2023-02-23T02:31:06.329Z,100187.16
2023-02-23T02:34:54.649Z,100194.34
2023-02-23T02:38:22.777Z,100193.75
2023-02-23T02:41:42.491Z,100190.31
2023-02-23T02:44:55.272Z,100188.47
2023-02-23T02:48:21.644Z,100198.03
2023-02-23T02:51:44.147Z,100198.44
2023-02-23T02:54:53.662Z,100202.81
2023-02-23T02:57:58.370Z,100197.72
2023-02-23T03:01:26.205Z,100209.22
2023-02-23T03:04:47.467Z,100202.72
2023-02-23T03:08:37.834Z,100210.63
2023-02-23T03:12:05.467Z,100201.72
2023-02-23T03:15:50.003Z,100214.94
2023-02-23T03:19:37.495Z,100208.28
2023-02-23T03:23:21.115Z,100203.59
2023-02-23T03:26:45.086Z,100214.19
2023-02-23T03:30:13.647Z,100213.31
2023-02-23T03:33:41.598Z,100220.25
2023-02-23T03:37:06.882Z,100201.84
2023-02-23T03:40:47.117Z,100221.69
2023-02-23T03:44:20.075Z,100216.78
2023-02-23T03:47:43.951Z,100194.41
2023-02-23T03:51:09.998Z,100227.66
2023-02-23T03:54:41.586Z,100223.78
2023-02-23T03:58:06.966Z,100221.09
2023-02-23T04:01:29.356Z,100230.31
2023-02-23T04:04:50.228Z,100216.06
2023-02-23T04:08:12.587Z,100224.63
2023-02-23T04:11:55.536Z,100212.38
2023-02-23T04:15:05.061Z,100213.63
2023-02-23T04:18:08.566Z,100215.28
2023-02-23T04:21:10.946Z,100203.09
2023-02-23T04:24:13.348Z,100213.63
2023-02-23T04:27:15.674Z,100213.44
2023-02-23T04:30:18.733Z,100217.91
2023-02-23T04:33:22.277Z,100210.75
2023-02-23T04:36:25.277Z,100222.81
2023-02-23T04:39:28.480Z,100205.03
2023-02-23T04:42:31.170Z,100219.91
2023-02-23T04:45:33.614Z,100218.91
2023-02-23T04:48:36.092Z,100217.88
2023-02-23T04:51:38.410Z,100220.53
2023-02-23T04:54:41.868Z,100218.91
2023-02-23T04:57:44.569Z,100216.28
2023-02-23T05:00:46.838Z,100217.78
2023-02-23T05:03:49.954Z,100220.19
2023-02-23T05:06:52.351Z,100211.88
2023-02-23T05:09:54.826Z,100216.50
2023-02-23T05:12:58.327Z,100223.78
2023-02-23T05:16:01.305Z,100237.22
2023-02-23T05:19:03.573Z,100221.69
2023-02-23T05:22:06.038Z,100225.13
2023-02-23T05:25:10.328Z,100229.81
2023-02-23T05:28:12.687Z,100236.91
2023-02-23T05:31:15.178Z,100212.69
2023-02-23T05:34:17.648Z,100237.56
2023-02-23T05:37:20.430Z,100217.31
2023-02-23T05:40:22.755Z,100233.31
2023-02-23T05:43:25.085Z,100243.94
2023-02-23T05:46:27.846Z,100231.94
2023-02-23T05:59:44.245Z,100230.59
2023-02-23T06:02:46.718Z,100245.44
2023-02-23T06:06:02.145Z,100241.94
2023-02-23T06:09:07.367Z,100254.88
2023-02-23T06:12:09.676Z,100252.72
2023-02-23T06:15:15.027Z,100255.75
2023-02-23T06:18:34.201Z,100265.66
2023-02-23T06:21:37.682Z,100238.59
2023-02-23T06:30:36.241Z,100284.19
2023-02-23T06:33:42.716Z,100272.56
2023-02-23T06:36:47.772Z,100277.84
2023-02-23T06:39:50.597Z,100276.34
2023-02-23T06:42:52.988Z,100273.69
2023-02-23T06:45:56.992Z,100293.53
2023-02-23T06:48:59.949Z,100276.44
2023-02-23T06:52:02.274Z,100272.72
2023-02-23T06:55:05.557Z,100295.44
2023-02-23T06:58:08.504Z,100284.19
2023-02-23T07:01:12.869Z,100297.03
2023-02-23T07:04:16.838Z,100295.66
2023-02-23T07:07:25.914Z,100305.84
2023-02-23T07:10:47.364Z,100309.97
2023-02-23T07:13:49.674Z,100306.56
2023-02-23T07:16:52.076Z,100310.34
2023-02-23T07:19:55.752Z,100314.53
2023-02-23T07:22:58.353Z,100317.44
2023-02-23T07:26:01.101Z,100309.97
2023-02-23T07:29:03.684Z,100313.25
2023-02-23T07:32:06.153Z,100312.44
2023-02-23T07:35:09.057Z,100302.25
2023-02-23T07:38:11.484Z,100300.97
2023-02-23T07:41:14.154Z,100300.97
2023-02-23T07:44:16.470Z,100294.69
2023-02-23T07:47:18.787Z,100318.72
2023-02-23T07:51:03.433Z,100306.63
2023-02-23T08:04:17.160Z,100308.25
2023-02-23T08:07:19.618Z,100283.38
2023-02-23T08:10:22.568Z,100323.78
2023-02-23T08:13:24.833Z,100317.16
2023-02-23T08:16:31.706Z,100301.03
2023-02-23T08:19:34.323Z,100311.25
2023-02-23T08:22:48.353Z,100325.34
2023-02-23T08:25:51.499Z,100326.00
2023-02-23T08:28:54.499Z,100308.16
2023-02-23T08:31:57.385Z,100318.63
2023-02-23T08:35:01.229Z,100307.16
2023-02-23T08:38:03.630Z,100318.13
2023-02-23T08:41:09.612Z,100327.03
2023-02-23T08:44:11.986Z,100333.13
2023-02-23T08:47:17.063Z,100352.00
2023-02-23T08:50:20.945Z,100342.28
2023-02-23T08:53:26.685Z,100336.44
2023-02-23T08:56:29.129Z,100340.25
2023-02-23T08:59:32.095Z,100342.28
2023-02-23T09:02:35.695Z,100334.59
2023-02-23T09:05:38.889Z,100322.28
2023-02-23T09:08:41.797Z,100324.66
2023-02-23T09:11:44.148Z,100333.63
2023-02-23T09:14:47.403Z,100347.22
2023-02-23T09:17:50.683Z,100345.13
2023-02-23T09:20:52.983Z,100342.38
2023-02-23T09:23:56.333Z,100317.53
2023-02-23T09:26:58.652Z,100341.72
2023-02-23T09:30:01.101Z,100337.44
2023-02-23T09:33:03.590Z,100345.31
2023-02-23T09:36:17.487Z,100323.41
2023-02-23T09:39:37.632Z,100338.66
2023-02-23T09:42:49.930Z,100345.84
2023-02-23T09:46:01.550Z,100361.22
2023-02-23T09:55:08.959Z,100356.00
2023-02-23T09:58:30.511Z,100359.28
2023-02-23T10:01:55.535Z,100355.94
2023-02-23T10:05:08.946Z,100354.47
2023-02-23T10:08:35.479Z,100325.59
2023-02-23T10:11:42.094Z,100362.38
2023-02-23T10:15:21.526Z,100365.16
2023-02-23T10:18:49.002Z,100356.00
2023-02-23T10:21:56.591Z,100350.50
2023-02-23T10:25:31.007Z,100332.19
2023-02-23T10:28:36.156Z,100331.44
2023-02-23T10:31:44.194Z,100323.75
2023-02-23T10:34:49.041Z,100342.22
2023-02-23T10:37:52.631Z,100331.56
2023-02-23T10:40:56.206Z,100329.34
2023-02-23T10:44:07.896Z,100312.03
2023-02-23T10:47:34.130Z,100336.38
2023-02-23T10:50:39.906Z,100320.44
2023-02-23T10:53:43.514Z,100329.50
2023-02-23T10:56:46.776Z,100305.72
2023-02-23T11:00:02.265Z,100303.16
2023-02-23T11:03:19.146Z,100298.84
2023-02-23T11:06:36.041Z,100300.59
2023-02-23T11:09:47.097Z,100284.50
2023-02-23T11:12:50.860Z,100297.16
2023-02-23T11:16:20.964Z,100280.78
2023-02-23T11:19:38.793Z,100291.66
2023-02-23T11:22:41.816Z,100283.75
2023-02-23T11:25:45.257Z,100272.56
2023-02-23T11:28:48.035Z,100281.88
2023-02-23T11:31:53.036Z,100273.03
2023-02-23T11:35:16.600Z,100269.63
2023-02-23T11:38:21.860Z,100286.81
2023-02-23T11:41:24.900Z,100262.22
2023-02-23T11:44:28.179Z,100262.66
2023-02-23T11:47:32.268Z,100261.31
2023-02-23T11:50:36.487Z,100268.28
2023-02-23T11:53:40.943Z,100262.50
2023-02-23T11:56:52.425Z,100253.31
2023-02-23T11:59:57.098Z,100260.41
2023-02-23T12:03:00.897Z,100254.13
2023-02-23T12:06:03.377Z,100263.69
2023-02-23T12:09:25.186Z,100263.41
2023-02-23T12:12:28.842Z,100249.22
2023-02-23T12:15:51.080Z,100253.19
2023-02-23T12:19:12.042Z,100259.47
2023-02-23T12:22:16.310Z,100252.78
2023-02-23T12:25:43.094Z,100244.06
2023-02-23T12:28:58.718Z,100230.00
2023-02-23T12:32:05.769Z,100245.06
2023-02-23T12:35:22.776Z,100241.00
2023-02-23T12:38:52.233Z,100215.22
2023-02-23T12:42:14.684Z,100225.50
2023-02-23T12:45:22.284Z,100223.50
2023-02-23T12:48:58.818Z,100238.06
2023-02-23T12:52:17.993Z,100216.34
2023-02-23T12:55:50.511Z,100225.78
2023-02-23T12:59:05.341Z,100215.56
2023-02-23T13:02:16.608Z,100210.47
2023-02-23T13:06:01.754Z,100201.84
2023-02-23T13:09:15.519Z,100193.75
2023-02-23T13:12:20.832Z,100201.19
2023-02-23T13:15:31.467Z,100198.50
2023-02-23T13:18:46.622Z,100191.78
2023-02-23T13:21:59.177Z,100195.69
2023-02-23T13:25:05.118Z,100163.56
2023-02-23T13:28:16.434Z,100182.94
2023-02-23T13:31:37.745Z,100182.69
2023-02-23T13:34:44.871Z,100158.69
2023-02-23T13:38:04.284Z,100173.41
2023-02-23T13:41:17.802Z,100165.03
2023-02-23T13:44:31.606Z,100184.91
2023-02-23T13:47:47.578Z,100169.94
2023-02-23T13:51:06.189Z,100166.00
2023-02-23T13:54:13.493Z,100168.06
2023-02-23T13:57:19.881Z,100155.66
2023-02-23T14:00:23.335Z,100163.34
2023-02-23T14:03:29.720Z,100154.06
2023-02-23T14:06:34.565Z,100161.34
2023-02-23T14:09:40.905Z,100161.91
2023-02-23T14:13:06.520Z,100135.34
2023-02-23T14:16:20.029Z,100154.38
2023-02-23T14:19:37.021Z,100148.38
2023-02-23T14:23:11.796Z,100161.56
2023-02-23T14:26:29.461Z,100169.22
2023-02-23T14:29:40.204Z,100172.72
2023-02-23T14:32:45.053Z,100144.28
2023-02-23T14:35:49.898Z,100149.59
2023-02-23T14:38:56.058Z,100161.56
2023-02-23T14:41:59.999Z,100151.59
2023-02-23T14:45:30.889Z,100159.03
2023-02-23T14:48:36.749Z,100148.91
2023-02-23T14:51:47.182Z,100139.75
2023-02-23T14:55:12.866Z,100146.47
2023-02-23T14:58:43.211Z,100138.13
2023-02-23T15:01:45.547Z,100144.16
2023-02-23T15:04:48.118Z,100142.28
2023-02-23T15:07:51.984Z,100146.91
2023-02-23T15:11:14.855Z,100147.63
2023-02-23T15:14:27.319Z,100120.72
2023-02-23T15:17:33.225Z,100141.47
2023-02-23T15:23:40.400Z,100102.84
2023-02-23T15:26:43.875Z,100140.09
2023-02-23T15:29:46.370Z,100134.19
2023-02-23T15:32:49.673Z,100133.03
2023-02-23T15:35:56.336Z,100132.00
2023-02-23T15:38:59.803Z,100134.19
2023-02-23T15:42:02.858Z,100126.66
2023-02-23T15:45:16.548Z,100134.56
2023-02-23T15:48:22.900Z,100132.69
2023-02-23T15:51:39.858Z,100111.91
2023-02-23T15:54:56.978Z,100113.19
2023-02-23T15:58:22.526Z,100129.53
2023-02-23T16:01:27.326Z,100123.84
2023-02-23T16:04:33.811Z,100105.06
2023-02-23T16:07:43.436Z,100124.31
2023-02-23T16:10:47.282Z,100093.13
2023-02-23T16:13:51.361Z,100105.19
2023-02-23T16:17:10.084Z,100129.31
2023-02-23T16:20:14.068Z,100127.34
2023-02-23T16:23:34.447Z,100134.78
2023-02-23T16:26:53.783Z,100141.84
2023-02-23T16:30:17.093Z,100131.75
2023-02-23T16:33:25.095Z,100135.44
2023-02-23T16:36:39.825Z,100134.31
2023-02-23T16:39:42.195Z,100118.38
2023-02-23T16:42:44.546Z,100142.06
2023-02-23T16:45:48.274Z,100130.88
2023-02-23T16:48:50.709Z,100130.78
2023-02-23T16:51:53.095Z,100131.91
2023-02-23T16:54:56.163Z,100145.16
2023-02-23T16:58:01.032Z,100142.22
2023-02-23T17:01:03.505Z,100134.22
2023-02-23T17:04:15.563Z,100145.50
2023-02-23T17:07:20.292Z,100133.28
2023-02-23T17:10:29.206Z,100134.31
2023-02-23T17:13:33.435Z,100137.47
2023-02-23T17:16:35.788Z,100132.38
2023-02-23T17:19:38.094Z,100132.25
2023-02-23T17:22:40.494Z,100126.88
2023-02-23T17:25:42.807Z,100120.13
2023-02-23T17:28:45.309Z,100113.28
2023-02-23T17:31:47.765Z,100113.41
2023-02-23T17:34:52.321Z,100110.84
2023-02-23T17:37:55.039Z,100121.88
2023-02-23T17:40:58.058Z,100111.09
2023-02-23T17:44:02.767Z,100130.47
2023-02-23T17:47:05.039Z,100128.59
2023-02-23T17:50:07.971Z,100122.47
2023-02-23T17:53:10.472Z,100126.06
2023-02-23T17:56:13.200Z,100130.00
2023-02-23T17:59:15.611Z,100139.63
2023-02-23T18:02:20.900Z,100130.94
2023-02-23T18:05:23.308Z,100130.94
2023-02-23T18:08:25.664Z,100110.34
2023-02-23T18:11:28.102Z,100122.09
2023-02-23T18:14:31.088Z,100119.06
2023-02-23T18:17:33.826Z,100100.88
2023-02-23T18:20:36.141Z,100117.69
2023-02-23T18:23:38.508Z,100099.75
2023-02-23T18:26:41.293Z,100111.47
2023-02-23T18:29:43.690Z,100112.50
2023-02-23T18:32:46.188Z,100111.22
2023-02-23T18:35:48.529Z,100103.47
2023-02-23T18:38:51.163Z,100097.81
2023-02-23T18:41:53.521Z,100114.06
2023-02-23T18:44:55.897Z,100113.41
2023-02-23T18:48:00.910Z,100107.69
2023-02-23T18:51:05.929Z,100108.50
2023-02-23T18:54:13.135Z,100092.63
2023-02-23T18:57:16.158Z,100087.75
2023-02-23T19:00:18.993Z,100106.78
2023-02-23T19:03:21.444Z,100098.72
2023-02-23T19:06:25.481Z,100084.25
2023-02-23T19:09:28.213Z,100095.31
2023-02-23T19:12:31.161Z,100096.06
2023-02-23T19:15:34.123Z,100093.97
2023-02-23T19:18:36.729Z,100094.56
2023-02-23T19:21:39.437Z,100094.88
2023-02-23T19:24:41.894Z,100091.63
2023-02-23T19:27:44.348Z,100100.53
2023-02-23T19:30:49.489Z,100109.88
2023-02-23T19:33:56.903Z,100108.16
2023-02-23T19:36:59.175Z,100091.63
2023-02-23T19:40:03.604Z,100103.50
2023-02-23T19:43:06.105Z,100099.13
2023-02-23T19:46:11.886Z,100105.72
2023-02-23T19:49:16.060Z,100110.94
2023-02-23T19:52:18.394Z,100103.22
2023-02-23T19:55:22.023Z,100097.38
2023-02-23T19:58:27.159Z,100104.69
2023-02-23T20:01:30.045Z,100105.97
2023-02-23T20:04:32.511Z,100103.09
2023-02-23T20:07:34.808Z,100090.25
2023-02-23T20:10:42.628Z,100104.72
2023-02-23T20:13:44.919Z,100063.63
2023-02-23T20:16:48.706Z,100100.34
2023-02-23T20:19:51.105Z,100097.16
2023-02-23T20:22:53.751Z,100088.66
2023-02-23T20:25:56.096Z,100097.03
2023-02-23T20:28:58.777Z,100089.94
2023-02-23T20:32:02.333Z,100082.53
2023-02-23T20:35:06.741Z,100065.47
2023-02-23T20:38:09.838Z,100077.22
2023-02-23T20:41:12.276Z,100077.53
2023-02-23T20:44:17.825Z,100060.03
2023-02-23T20:47:20.197Z,100072.72
2023-02-23T20:50:25.739Z,100074.81
2023-02-23T20:53:29.414Z,100075.69
2023-02-23T20:56:32.268Z,100070.41
2023-02-23T20:59:38.414Z,100068.81
2023-02-23T21:02:43.503Z,100059.72
2023-02-23T21:05:45.980Z,100064.75
2023-02-23T21:08:49.071Z,100060.97
2023-02-23T21:11:51.427Z,100046.34
2023-02-23T21:14:54.008Z,100049.09
2023-02-23T21:17:57.533Z,100069.47
2023-02-23T21:21:06.578Z,100065.91
2023-02-23T21:24:09.799Z,100065.63
2023-02-23T21:27:13.200Z,100053.97
2023-02-23T21:30:19.663Z,100068.22
2023-02-23T21:33:22.031Z,100055.44
2023-02-23T21:36:24.426Z,100058.78
2023-02-23T21:39:28.203Z,100063.97
2023-02-23T21:42:30.912Z,100061.19
2023-02-23T21:45:33.262Z,100058.63
2023-02-23T21:48:35.653Z,100063.06
2023-02-23T21:51:38.678Z,100052.69
2023-02-23T21:54:41.554Z,100047.63
2023-02-23T21:57:44.760Z,100055.34
2023-02-23T22:00:48.267Z,100044.63
2023-02-23T22:03:51.640Z,100050.53
2023-02-23T22:06:54.055Z,100041.78
2023-02-23T22:09:56.463Z,100041.31
2023-02-23T22:13:00.143Z,100022.09
2023-02-23T22:16:03.305Z,100030.75
2023-02-23T22:19:06.746Z,100031.25
2023-02-23T22:22:09.121Z,100008.72
2023-02-23T22:25:11.920Z,100027.56
2023-02-23T22:28:14.269Z,100014.28
2023-02-23T22:31:16.654Z,100015.94
2023-02-23T22:34:19.164Z,100016.94
2023-02-23T22:37:22.034Z,100018.09
2023-02-23T22:40:24.370Z,100019.81
2023-02-23T22:43:27.282Z,100016.78
2023-02-23T22:46:29.577Z,100001.75
2023-02-23T22:49:32.131Z,100012.13
2023-02-23T22:52:34.840Z,100000.28
2023-02-23T22:55:37.257Z,99988.75
2023-02-23T22:58:42.192Z,99993.63
2023-02-23T23:01:44.784Z,99988.91
2023-02-23T23:04:47.599Z,99987.97
2023-02-23T23:07:50.037Z,99994.41
2023-02-23T23:10:52.316Z,99984.19
2023-02-23T23:14:02.922Z,99988.47
2023-02-23T23:17:05.371Z,99992.19
2023-02-23T23:20:12.148Z,99990.47
2023-02-23T23:23:15.231Z,99977.38
2023-02-23T23:26:20.612Z,99976.06
2023-02-23T23:29:23.744Z,99974.22
2023-02-23T23:32:27.816Z,99975.47
2023-02-23T23:35:30.358Z,99959.47
2023-02-23T23:38:33.622Z,99969.28
2023-02-23T23:41:35.938Z,99957.88
2023-02-23T23:44:38.405Z,99959.97
2023-02-23T23:47:40.711Z,99958.78
2023-02-23T23:50:43.105Z,99942.19
2023-02-23T23:53:45.562Z,99951.69
2023-02-23T23:56:48.055Z,99939.28
2023-02-23T23:59:51.417Z,99938.41
